Ora Direzione Vento Velocita' Vento Media Vento Raffica Max. Temperatura Wind Chill Pioggia Pressione
04:46:05.054 °(NE)18.4 Kts18.66 Kts37.0 Kts6.6 °C1.91 °C0.54 mm1012.3 Hpa
04:25:22.040 °(NE)28.6 Kts29.66 Kts37.0 Kts6.0 °C0.03 °C0.54 mm1012.7 Hpa
04:04:40.048 °(NE)25.3 Kts25.3 Kts37.0 Kts6.0 °C0.3 °C0.54 mm1013.8 Hpa
03:44:06.055 °(NE)25.9 Kts28.7 Kts37.0 Kts6.4 °C0.84 °C0.54 mm1012.5 Hpa
03:25:25.072 °(ENE)28.2 Kts29.2 Kts37.0 Kts6.9 °C1.26 °C0.27 mm1011.0 Hpa
03:04:44.055 °(NE)22.5 Kts21.43 Kts37.0 Kts6.8 °C1.73 °C0.27 mm1011.3 Hpa
02:46:01.050 °(NE)23.6 Kts24.3 Kts37.0 Kts6.6 °C1.29 °C0.27 mm1011.3 Hpa
02:25:21.059 °(ENE)36.1 Kts35.4 Kts37.0 Kts7.1 °C0.85 °C0.0 mm1012.3 Hpa
02:04:37.088 °(E)29.5 Kts28.46 Kts37.0 Kts7.5 °C1.92 °C0.0 mm1010.3 Hpa
01:45:52.076 °(ENE)26.5 Kts30.26 Kts35.7 Kts7.5 °C2.25 °C0.0 mm1010.8 Hpa
01:25:10.074 °(ENE)33.5 Kts32.63 Kts35.7 Kts7.5 °C1.75 °C0.0 mm1009.5 Hpa
01:04:32.061 °(ENE)27.5 Kts28.5 Kts34.9 Kts7.8 °C2.65 °C0.0 mm1011.6 Hpa
00:45:57.046 °(NE)25.8 Kts19.66 Kts30.7 Kts7.6 °C2.46 °C0.0 mm1009.5 Hpa
00:25:15.041 °(NE)21.5 Kts22.63 Kts30.7 Kts7.3 °C2.57 °C0.0 mm1010.3 Hpa
00:04:34.016 °(NNE)25.3 Kts24.33 Kts29.5 Kts6.8 °C1.38 °C0.0 mm1011.0 Hpa
23:45:55.062 °(ENE)21.5 Kts20.6 Kts37.0 Kts7.0 °C2.18 °C2.97 mm1010.3 Hpa
23:25:14.044 °(NE)20.8 Kts23.7 Kts37.0 Kts6.5 °C1.51 °C2.97 mm1011.0 Hpa
23:04:30.023 °(NNE)22.2 Kts19.5 Kts37.0 Kts7.1 °C2.13 °C2.97 mm1011.3 Hpa
22:45:55.053 °(NE)24.4 Kts22.63 Kts37.0 Kts8.0 °C3.17 °C2.97 mm1010.3 Hpa
22:25:12.051 °(NE)24.7 Kts22.16 Kts37.0 Kts8.1 °C3.14 °C2.97 mm1010.8 Hpa